Time;durP1;ratioP1;P1;durP2;ratioP2;P2;SDS_P1;SDS_P2;PMS_P1;PMS_P2;Temp;Humidity;BMP_temperature;BMP_pressure;BME280_temperature;BME280_humidity;BME280_pressure;Samples;Min_cycle;Max_cycle;Signal;HPM_P1;HPM_P2
2022/11/11 00:02:03;;;;;;;0.10;0.08;;;10.00;99.90;;;;;;5093330;28;20075;-79
2022/11/11 00:04:28;;;;;;;1.50;0.08;;;10.00;99.90;;;;;;5093516;28;20403;-79
2022/11/11 00:06:54;;;;;;;0.20;0.20;;;10.00;99.90;;;;;;5077202;28;20050;-79
2022/11/11 00:09:20;;;;;;;0.00;0.00;;;10.00;99.90;;;;;;5094393;28;20373;-79
2022/11/11 00:11:45;;;;;;;0.00;0.00;;;10.10;99.90;;;;;;5094046;28;20060;-79
2022/11/11 00:14:11;;;;;;;0.00;0.00;;;10.10;99.90;;;;;;5094027;28;20048;-79
2022/11/11 00:25:06;;;;;;;0.00;0.00;;;10.00;99.90;;;;;;5093543;28;20047;-79
2022/11/11 00:27:32;;;;;;;0.00;0.00;;;10.00;99.90;;;;;;5093659;28;20031;-79
2022/11/11 00:29:58;;;;;;;0.70;0.25;;;10.00;99.90;;;;;;5093692;28;20143;-79
2022/11/11 00:32:27;;;;;;;4.70;0.88;;;10.00;99.90;;;;;;5093688;28;20127;-79
2022/11/11 00:37:42;;;;;;;0.38;0.38;;;10.00;99.90;;;;;;5093854;28;20407;-79
2022/11/11 00:40:09;;;;;;;0.80;0.47;;;10.00;99.90;;;;;;5093322;28;20111;-79
2022/11/11 00:42:35;;;;;;;0.00;0.00;;;10.00;99.90;;;;;;5093604;28;20048;-79
2022/11/11 00:45:00;;;;;;;0.52;0.52;;;9.90;99.90;;;;;;5092938;28;20043;-79
2022/11/11 00:53:28;;;;;;;0.00;0.00;;;10.10;99.90;;;;;;5093383;28;20056;-79
2022/11/11 00:55:54;;;;;;;0.10;0.08;;;9.90;99.90;;;;;;5076326;28;20054;-79
2022/11/11 00:58:21;;;;;;;0.00;0.00;;;10.00;99.90;;;;;;5076145;28;20133;-79
2022/11/11 01:00:49;;;;;;;0.68;0.22;;;10.00;99.90;;;;;;5076237;28;20032;-79
2022/11/11 01:03:15;;;;;;;0.17;0.10;;;10.00;99.90;;;;;;5093418;28;20411;-79
2022/11/11 01:05:41;;;;;;;0.10;0.10;;;10.00;99.90;;;;;;5075792;28;20509;-79
2022/11/11 01:08:07;;;;;;;0.00;0.00;;;10.00;99.90;;;;;;5093120;28;20119;-79
2022/11/11 01:10:38;;;;;;;0.00;0.00;;;10.00;99.90;;;;;;5076228;28;20036;-79
2022/11/11 01:13:15;;;;;;;0.90;0.00;;;10.00;99.90;;;;;;5093262;28;20048;-79
2022/11/11 01:15:44;;;;;;;0.10;0.10;;;9.90;99.90;;;;;;5076312;28;20498;-79
2022/11/11 01:18:11;;;;;;;0.10;0.10;;;9.90;99.90;;;;;;5076269;28;20053;-79
2022/11/11 01:20:37;;;;;;;0.65;0.47;;;9.90;99.90;;;;;;5092604;28;20044;-79
2022/11/11 01:23:08;;;;;;;0.00;0.00;;;9.80;99.90;;;;;;5092784;28;20040;-79
2022/11/11 01:25:34;;;;;;;0.15;0.05;;;9.80;99.90;;;;;;5076329;28;20094;-79
2022/11/11 01:28:01;;;;;;;0.00;0.00;;;9.90;99.90;;;;;;5076031;28;20048;-79
2022/11/11 01:30:27;;;;;;;8.95;1.00;;;9.70;99.90;;;;;;5075983;28;20047;-78
2022/11/11 01:32:52;;;;;;;0.52;0.32;;;9.70;99.90;;;;;;5076197;28;20063;-79
2022/11/11 01:35:18;;;;;;;0.00;0.00;;;9.70;99.90;;;;;;5092590;28;20130;-79
2022/11/11 01:37:43;;;;;;;0.00;0.00;;;9.70;99.90;;;;;;5092410;28;20032;-79
2022/11/11 01:40:09;;;;;;;0.17;0.17;;;9.70;99.90;;;;;;5076293;28;20123;-79
2022/11/11 01:43:07;;;;;;;0.00;0.00;;;9.70;99.90;;;;;;5092687;28;20047;-79
2022/11/11 01:45:47;;;;;;;0.00;0.00;;;9.70;99.90;;;;;;5075770;28;20075;-79
2022/11/11 01:51:36;;;;;;;0.03;0.03;;;9.60;99.90;;;;;;5092447;28;20058;-79
2022/11/11 01:54:05;;;;;;;0.75;0.75;;;9.70;99.90;;;;;;5075833;28;20044;-79
2022/11/11 01:56:32;;;;;;;0.30;0.10;;;9.60;99.90;;;;;;5077212;28;20063;-79
2022/11/11 01:59:02;;;;;;;0.50;0.50;;;9.70;99.90;;;;;;5097126;28;20044;-79
2022/11/11 02:01:28;;;;;;;0.10;0.10;;;9.60;99.90;;;;;;5080075;28;20127;-79
2022/11/11 02:06:41;;;;;;;0.00;0.00;;;9.60;99.90;;;;;;5096201;28;20052;-79
2022/11/11 02:09:07;;;;;;;5.75;1.02;;;9.60;99.90;;;;;;5079587;28;20392;-79
2022/11/11 02:14:34;;;;;;;0.00;0.00;;;9.50;99.90;;;;;;5096488;28;20048;-79
2022/11/11 02:17:01;;;;;;;0.68;0.45;;;9.60;99.90;;;;;;5079468;28;20044;-79
2022/11/11 02:20:03;;;;;;;0.00;0.00;;;9.50;99.90;;;;;;5079205;28;20032;-79
2022/11/11 02:22:40;;;;;;;0.00;0.00;;;9.60;99.90;;;;;;5038366;28;20053;-79
2022/11/11 02:25:09;;;;;;;0.00;0.00;;;9.60;99.90;;;;;;5022062;28;20102;-79
2022/11/11 02:27:37;;;;;;;0.88;0.88;;;9.60;99.90;;;;;;5021493;28;20056;-79
2022/11/11 02:30:06;;;;;;;1.75;0.80;;;9.50;99.90;;;;;;5021449;28;20047;-79
2022/11/11 02:32:31;;;;;;;0.45;0.15;;;9.50;99.90;;;;;;5037956;28;20056;-79
2022/11/11 02:34:57;;;;;;;10.10;0.60;;;9.50;99.90;;;;;;5037986;28;20388;-79
2022/11/11 02:37:25;;;;;;;0.00;0.00;;;9.60;99.90;;;;;;5038052;28;20135;-79
2022/11/11 02:39:56;;;;;;;0.05;0.05;;;9.50;99.90;;;;;;5021406;28;20500;-79
2022/11/11 02:42:23;;;;;;;0.20;0.20;;;9.50;99.90;;;;;;5038078;28;20467;-79
2022/11/11 02:44:48;;;;;;;5.78;0.28;;;9.50;99.90;;;;;;5021179;28;20060;-79
2022/11/11 02:47:14;;;;;;;1.67;0.55;;;9.50;99.90;;;;;;5021210;28;20040;-79
2022/11/11 02:49:40;;;;;;;0.08;0.00;;;9.50;99.90;;;;;;5021119;28;20052;-79
2022/11/11 02:52:06;;;;;;;0.00;0.00;;;9.50;99.90;;;;;;5037492;28;20048;-79
2022/11/11 02:54:32;;;;;;;1.02;0.10;;;9.60;99.90;;;;;;5037802;28;20043;-79
2022/11/11 02:57:06;;;;;;;0.10;0.05;;;9.60;99.90;;;;;;5037656;28;20041;-79
2022/11/11 02:59:33;;;;;;;3.03;1.55;;;9.60;99.90;;;;;;5082080;28;20058;-79
2022/11/11 03:01:58;;;;;;;0.10;0.00;;;9.70;99.90;;;;;;5095561;28;20040;-79
2022/11/11 03:04:24;;;;;;;0.30;0.30;;;9.60;99.90;;;;;;5095175;28;20450;-79
2022/11/11 03:06:49;;;;;;;0.00;0.00;;;9.70;99.90;;;;;;5078107;28;20090;-79
2022/11/11 03:09:15;;;;;;;0.08;0.05;;;9.70;99.90;;;;;;5078235;28;20094;-79
2022/11/11 03:11:41;;;;;;;0.63;0.17;;;9.70;99.90;;;;;;5094935;28;20048;-79
2022/11/11 03:14:07;;;;;;;0.00;0.00;;;9.80;99.90;;;;;;5078403;28;20054;-79
2022/11/11 03:19:17;;;;;;;0.10;0.10;;;9.80;99.90;;;;;;5095319;28;20070;-79
2022/11/11 03:21:43;;;;;;;0.28;0.28;;;9.90;99.90;;;;;;5078228;28;20143;-79
2022/11/11 03:24:09;;;;;;;1.55;0.10;;;9.90;99.90;;;;;;5078437;28;20097;-79
2022/11/11 03:26:34;;;;;;;0.03;0.03;;;9.90;99.90;;;;;;5077924;28;20063;-79
2022/11/11 03:29:00;;;;;;;0.20;0.10;;;9.90;99.90;;;;;;5078141;28;20044;-79
2022/11/11 03:31:26;;;;;;;0.10;0.05;;;10.00;99.90;;;;;;5094904;28;20052;-79
2022/11/11 03:33:51;;;;;;;0.10;0.08;;;10.00;99.90;;;;;;5078118;28;20143;-79
2022/11/11 03:36:17;;;;;;;1.35;0.98;;;10.00;99.90;;;;;;5077909;28;20073;-79
2022/11/11 03:38:43;;;;;;;1.20;0.35;;;10.00;99.90;;;;;;5094662;28;20503;-79
2022/11/11 03:41:08;;;;;;;0.20;0.20;;;10.00;99.90;;;;;;5094288;28;20540;-79
2022/11/11 03:43:34;;;;;;;0.03;0.03;;;10.10;99.90;;;;;;5094622;28;20047;-79
2022/11/11 03:46:02;;;;;;;0.82;0.63;;;10.10;99.90;;;;;;5077574;28;20040;-79
2022/11/11 03:48:31;;;;;;;0.65;0.20;;;10.20;99.90;;;;;;5077515;28;20052;-78
2022/11/11 03:50:56;;;;;;;3.83;1.30;;;10.10;99.90;;;;;;5077407;28;20056;-78
2022/11/11 03:53:22;;;;;;;0.68;0.43;;;10.20;99.90;;;;;;5094424;28;20066;-78
2022/11/11 03:55:50;;;;;;;1.33;0.65;;;10.20;99.90;;;;;;5094552;28;20044;-78
2022/11/11 03:58:16;;;;;;;0.30;0.30;;;10.20;99.90;;;;;;5094361;28;20071;-78
2022/11/11 04:00:43;;;;;;;1.17;0.35;;;10.20;99.90;;;;;;5077422;28;20391;-78
2022/11/11 04:11:27;;;;;;;0.65;0.65;;;10.20;99.90;;;;;;5093890;28;20063;-78
2022/11/11 04:16:40;;;;;;;0.25;0.25;;;10.30;99.90;;;;;;5094547;28;20110;-77
2022/11/11 04:21:50;;;;;;;0.82;0.57;;;10.30;99.90;;;;;;5093921;28;20193;-78
2022/11/11 04:27:06;;;;;;;0.77;0.65;;;10.40;99.90;;;;;;5094138;28;20457;-78
2022/11/11 04:29:32;;;;;;;0.22;0.20;;;10.40;99.90;;;;;;5076878;28;20194;-78
2022/11/11 04:34:58;;;;;;;0.45;0.15;;;10.40;99.90;;;;;;5093302;28;20514;-78
2022/11/11 04:37:26;;;;;;;0.00;0.00;;;10.40;99.90;;;;;;5094302;28;20055;-78
2022/11/11 04:42:37;;;;;;;0.20;0.00;;;10.40;99.90;;;;;;5093773;28;20052;-78
2022/11/11 04:48:07;;;;;;;;;;;10.40;99.90;;;;;;5094113;28;20063;-78
2022/11/11 04:50:35;;;;;;;0.10;0.10;;;10.40;99.90;;;;;;5076672;28;20267;-78
2022/11/11 04:53:03;;;;;;;0.43;0.38;;;10.40;99.90;;;;;;5076281;28;20135;-78
2022/11/11 04:58:14;;;;;;;3.00;0.20;;;10.40;99.90;;;;;;5093478;28;20135;-78
2022/11/11 05:00:40;;;;;;;2.53;0.65;;;10.40;99.90;;;;;;5092758;28;20044;-78
2022/11/11 05:03:14;;;;;;;1.00;0.40;;;10.50;99.90;;;;;;5076607;28;20147;-78
2022/11/11 05:11:13;;;;;;;0.10;0.08;;;10.40;99.90;;;;;;5093211;28;20060;-78
2022/11/11 05:22:03;;;;;;;0.10;0.10;;;10.40;99.90;;;;;;5091999;28;20063;-78
2022/11/11 05:27:12;;;;;;;0.08;0.00;;;10.50;99.90;;;;;;5093112;28;20052;-77
2022/11/11 05:29:38;;;;;;;0.00;0.00;;;10.50;99.90;;;;;;5092649;28;20097;-77
2022/11/11 05:32:06;;;;;;;0.55;0.45;;;10.50;99.90;;;;;;5076003;28;20396;-77
2022/11/11 05:34:31;;;;;;;0.32;0.32;;;10.50;99.90;;;;;;5092720;28;20046;-77
2022/11/11 05:36:57;;;;;;;0.98;0.82;;;10.50;99.90;;;;;;5092690;28;20044;-77
2022/11/11 05:39:22;;;;;;;0.98;0.30;;;10.50;99.90;;;;;;5092376;28;20475;-78
2022/11/11 05:41:48;;;;;;;0.10;0.10;;;10.50;99.90;;;;;;5092756;28;20036;-77
2022/11/11 05:44:13;;;;;;;1.00;0.63;;;10.50;99.90;;;;;;5092682;28;20043;-77
2022/11/11 05:46:39;;;;;;;0.20;0.20;;;10.50;99.90;;;;;;5093591;28;20102;-77
2022/11/11 05:49:14;;;;;;;0.17;0.17;;;10.50;99.90;;;;;;5075892;28;20422;-77
2022/11/11 05:51:40;;;;;;;1.95;1.25;;;10.50;99.90;;;;;;5075883;28;20083;-77
2022/11/11 05:54:05;;;;;;;0.32;0.32;;;10.50;99.90;;;;;;5075481;28;20137;-77
2022/11/11 05:56:31;;;;;;;2.67;0.93;;;10.50;99.90;;;;;;5092640;28;20474;-78
2022/11/11 05:58:57;;;;;;;0.20;0.20;;;10.60;99.90;;;;;;5075846;28;20050;-78
2022/11/11 06:01:23;;;;;;;0.10;0.10;;;10.50;99.90;;;;;;5075780;28;20040;-77
2022/11/11 06:03:48;;;;;;;0.10;0.10;;;10.50;99.90;;;;;;5075835;28;20048;-77
2022/11/11 06:06:14;;;;;;;0.22;0.10;;;10.50;99.90;;;;;;5075154;28;20067;-77
2022/11/11 06:08:40;;;;;;;0.30;0.30;;;10.50;99.90;;;;;;5092376;28;20098;-77
2022/11/11 06:11:06;;;;;;;0.10;0.10;;;10.50;99.90;;;;;;5075760;28;20055;-78
2022/11/11 06:13:32;;;;;;;0.60;0.13;;;10.50;99.90;;;;;;5075665;28;20566;-78
2022/11/11 06:15:58;;;;;;;0.20;0.20;;;10.50;99.90;;;;;;5092475;28;20052;-78
2022/11/11 06:18:24;;;;;;;0.98;0.98;;;10.50;99.90;;;;;;5075668;28;20500;-78
2022/11/11 06:20:54;;;;;;;0.05;0.05;;;10.40;99.90;;;;;;5074995;28;20055;-78
2022/11/11 06:23:21;;;;;;;0.30;0.20;;;10.50;99.90;;;;;;5075741;28;20044;-78
2022/11/11 06:28:30;;;;;;;0.13;0.13;;;10.50;99.90;;;;;;5092449;28;20051;-80
2022/11/11 06:30:56;;;;;;;0.32;0.32;;;10.50;99.90;;;;;;5075361;28;20052;-78
2022/11/11 06:33:22;;;;;;;13.05;0.50;;;10.50;99.90;;;;;;5075505;28;20056;-77
2022/11/11 06:35:48;;;;;;;0.00;0.00;;;10.50;99.90;;;;;;5075227;28;20143;-78
2022/11/11 06:38:14;;;;;;;0.20;0.20;;;10.50;99.90;;;;;;5092801;28;20381;-77
2022/11/11 06:40:41;;;;;;;0.08;0.08;;;10.50;99.90;;;;;;5091983;28;20047;-78
2022/11/11 06:43:07;;;;;;;0.38;0.15;;;10.50;99.90;;;;;;5094739;28;20040;-77
2022/11/11 06:45:34;;;;;;;1.40;0.47;;;10.50;99.90;;;;;;5079209;28;20102;-77
2022/11/11 06:48:00;;;;;;;1.45;0.20;;;10.50;99.90;;;;;;5078515;28;20484;-78
2022/11/11 06:50:25;;;;;;;0.90;0.00;;;10.50;99.90;;;;;;5078457;28;20077;-78
2022/11/11 06:52:51;;;;;;;0.10;0.10;;;10.50;99.90;;;;;;5078751;28;20466;-78
2022/11/11 06:55:17;;;;;;;0.10;0.10;;;10.60;99.90;;;;;;5078703;28;20391;-77
2022/11/11 06:57:43;;;;;;;1.55;0.20;;;10.60;99.90;;;;;;5078804;28;20056;-77
2022/11/11 07:00:09;;;;;;;0.25;0.25;;;10.50;99.90;;;;;;5095480;28;20113;-78
2022/11/11 07:02:35;;;;;;;1.10;0.70;;;10.50;99.90;;;;;;5095359;28;20089;-80
2022/11/11 07:05:01;;;;;;;0.30;0.22;;;10.50;99.90;;;;;;5078282;28;20048;-79
2022/11/11 07:07:27;;;;;;;0.20;0.20;;;10.50;99.90;;;;;;5078515;28;20526;-78
2022/11/11 07:09:54;;;;;;;0.00;0.00;;;10.50;99.90;;;;;;5095369;28;20055;-78
2022/11/11 07:12:20;;;;;;;0.03;0.00;;;10.50;99.90;;;;;;5095400;28;20059;-78
2022/11/11 07:14:46;;;;;;;1.40;0.55;;;10.50;99.90;;;;;;5095251;28;20059;-80
2022/11/11 07:17:12;;;;;;;0.00;0.00;;;10.50;99.90;;;;;;5095094;28;20040;-79
2022/11/11 07:19:37;;;;;;;0.70;0.55;;;10.60;99.90;;;;;;5094389;28;20059;-79
2022/11/11 07:22:03;;;;;;;0.10;0.10;;;10.50;99.90;;;;;;5078200;28;20044;-78
2022/11/11 07:24:28;;;;;;;1.25;0.28;;;10.50;99.90;;;;;;5078113;28;20054;-79
2022/11/11 07:26:54;;;;;;;0.00;0.00;;;10.50;99.90;;;;;;5078133;28;20048;-79
2022/11/11 07:29:20;;;;;;;0.20;0.20;;;10.50;99.90;;;;;;5094791;28;20040;-78
2022/11/11 07:31:46;;;;;;;0.15;0.15;;;10.60;99.90;;;;;;5078072;28;20054;-79
2022/11/11 07:34:11;;;;;;;0.20;0.20;;;10.60;99.90;;;;;;5094559;28;20046;-79
2022/11/11 07:36:37;;;;;;;0.57;0.10;;;10.60;99.90;;;;;;5094823;28;20079;-79
2022/11/11 07:39:02;;;;;;;0.20;0.20;;;10.50;99.90;;;;;;5077560;28;20052;-80
2022/11/11 07:41:28;;;;;;;0.00;0.00;;;10.60;99.90;;;;;;5078080;28;20134;-79
2022/11/11 07:43:54;;;;;;;0.10;0.08;;;10.50;99.90;;;;;;5094639;28;20048;-78
2022/11/11 07:46:19;;;;;;;1.65;0.50;;;10.50;99.90;;;;;;5077764;28;20495;-79
2022/11/11 07:48:45;;;;;;;1.45;0.38;;;10.50;99.90;;;;;;5076571;28;20051;-79
2022/11/11 07:51:10;;;;;;;1.23;0.93;;;10.60;99.90;;;;;;5076721;28;20083;-79
2022/11/11 07:53:36;;;;;;;1.02;0.63;;;10.60;99.90;;;;;;5093405;28;20551;-80
2022/11/11 07:56:02;;;;;;;0.00;0.00;;;10.50;99.90;;;;;;5093631;28;20083;-79
2022/11/11 07:58:27;;;;;;;0.50;0.50;;;10.60;99.90;;;;;;5076387;28;20056;-79
2022/11/11 08:00:53;;;;;;;0.00;0.00;;;10.60;99.90;;;;;;5093015;28;20036;-79
2022/11/11 08:03:18;;;;;;;0.10;0.10;;;10.60;99.90;;;;;;5094260;28;20040;-79
2022/11/11 08:05:44;;;;;;;0.00;0.00;;;10.60;99.90;;;;;;5093952;28;20495;-79
2022/11/11 08:08:10;;;;;;;1.17;0.30;;;10.60;99.90;;;;;;5094315;28;20044;-78
2022/11/11 08:10:36;;;;;;;4.40;0.40;;;10.60;99.90;;;;;;5077207;28;20077;-78
2022/11/11 08:15:47;;;;;;;0.10;0.10;;;10.60;99.90;;;;;;5094837;28;20044;-79
2022/11/11 08:18:13;;;;;;;0.00;0.00;;;10.60;99.90;;;;;;5077159;28;20140;-78
2022/11/11 08:20:39;;;;;;;16.58;2.03;;;10.60;99.90;;;;;;5093813;28;20456;-79
2022/11/11 08:23:09;;;;;;;0.22;0.22;;;10.70;99.90;;;;;;5093918;28;20105;-79
2022/11/11 08:25:35;;;;;;;0.00;0.00;;;10.60;99.90;;;;;;5077248;28;20058;-79
2022/11/11 08:28:03;;;;;;;1.02;0.88;;;10.60;99.90;;;;;;5093738;28;20138;-79
2022/11/11 08:30:29;;;;;;;0.50;0.50;;;10.70;99.90;;;;;;5093444;28;20143;-79
2022/11/11 08:32:58;;;;;;;0.35;0.35;;;10.60;99.90;;;;;;5093505;28;20079;-78
2022/11/11 08:35:24;;;;;;;0.50;0.50;;;10.70;99.90;;;;;;5094070;28;20079;-79
2022/11/11 08:37:50;;;;;;;0.10;0.10;;;10.70;99.90;;;;;;5093610;28;20494;-79
2022/11/11 08:40:16;;;;;;;0.00;0.00;;;10.70;99.90;;;;;;5093496;28;20047;-79
2022/11/11 08:42:42;;;;;;;0.65;0.30;;;10.70;99.90;;;;;;5076557;28;20387;-79
2022/11/11 08:45:08;;;;;;;3.72;0.52;;;10.70;99.90;;;;;;5093453;28;20055;-79
2022/11/11 08:47:35;;;;;;;0.20;0.20;;;10.70;99.90;;;;;;5077384;28;20065;-79
2022/11/11 08:50:01;;;;;;;0.35;0.35;;;10.70;99.90;;;;;;5076654;28;20055;-78
2022/11/11 08:52:26;;;;;;;0.20;0.20;;;10.80;99.90;;;;;;5076226;28;20059;-79
2022/11/11 08:54:52;;;;;;;0.25;0.10;;;10.70;99.90;;;;;;5076612;28;20055;-79
2022/11/11 08:57:18;;;;;;;0.00;0.00;;;10.80;99.90;;;;;;5093161;28;20165;-79
2022/11/11 08:59:43;;;;;;;0.30;0.30;;;10.90;99.90;;;;;;5076370;28;20087;-79
2022/11/11 09:02:12;;;;;;;0.35;0.35;;;10.90;99.90;;;;;;5093318;28;20109;-79
2022/11/11 09:04:39;;;;;;;0.10;0.10;;;10.90;99.90;;;;;;5075611;28;20364;-79
2022/11/11 09:07:06;;;;;;;0.10;0.10;;;10.80;99.90;;;;;;5076502;28;20051;-78
2022/11/11 09:09:32;;;;;;;4.72;0.90;;;10.90;99.90;;;;;;5076410;28;20040;-79
2022/11/11 09:11:58;;;;;;;0.43;0.43;;;10.90;99.90;;;;;;5093034;28;20574;-79
2022/11/11 09:14:23;;;;;;;0.10;0.10;;;10.90;99.90;;;;;;5092849;28;20051;-79
2022/11/11 09:16:49;;;;;;;0.45;0.45;;;10.90;99.90;;;;;;5093544;28;20087;-79
2022/11/11 09:19:15;;;;;;;0.57;0.57;;;11.00;99.90;;;;;;5093083;28;20046;-79
2022/11/11 09:21:40;;;;;;;2.33;0.93;;;11.00;99.90;;;;;;5093327;28;20095;-79
2022/11/11 09:24:06;;;;;;;0.80;0.80;;;11.00;99.90;;;;;;5093558;28;20047;-79
2022/11/11 09:26:32;;;;;;;0.73;0.38;;;11.00;99.90;;;;;;5076005;28;20079;-79
2022/11/11 09:28:57;;;;;;;0.50;0.50;;;11.00;99.90;;;;;;5076241;28;20056;-79
2022/11/11 09:31:23;;;;;;;0.57;0.20;;;11.00;99.90;;;;;;5076289;28;20047;-79
2022/11/11 09:33:52;;;;;;;0.25;0.25;;;11.00;99.90;;;;;;5093197;28;20086;-79
2022/11/11 09:36:19;;;;;;;2.08;0.63;;;11.00;99.90;;;;;;5092865;28;20040;-79
2022/11/11 09:38:44;;;;;;;0.25;0.20;;;11.00;99.90;;;;;;5075907;28;20051;-79
2022/11/11 09:41:23;;;;;;;0.60;0.60;;;11.00;99.90;;;;;;5075506;28;20056;-79
2022/11/11 09:43:54;;;;;;;0.30;0.25;;;11.00;99.90;;;;;;5093206;28;20084;-79
2022/11/11 09:46:34;;;;;;;1.63;0.40;;;11.00;99.90;;;;;;5093251;28;20052;-79
2022/11/11 09:49:27;;;;;;;0.55;0.55;;;11.00;99.90;;;;;;5092739;28;20097;-79
2022/11/11 09:52:06;;;;;;;0.40;0.20;;;11.00;99.90;;;;;;5093099;28;20044;-79
2022/11/11 09:54:51;;;;;;;1.05;0.93;;;10.90;99.90;;;;;;5076200;28;20105;-79
2022/11/11 09:57:39;;;;;;;0.28;0.25;;;10.90;99.90;;;;;;5075947;28;20160;-79
2022/11/11 10:00:29;;;;;;;0.00;0.00;;;10.90;99.90;;;;;;5092733;28;20085;-79
2022/11/11 10:03:05;;;;;;;0.03;0.03;;;10.90;99.90;;;;;;5076057;28;20048;-79
2022/11/11 10:06:05;;;;;;;0.32;0.32;;;10.80;99.90;;;;;;5075819;28;20113;-80
2022/11/11 10:08:48;;;;;;;0.80;0.50;;;10.90;99.90;;;;;;5075475;28;20082;-79
2022/11/11 10:11:58;;;;;;;0.10;0.10;;;10.80;99.90;;;;;;5075666;28;20146;-79
2022/11/11 10:14:32;;;;;;;0.00;0.00;;;10.90;99.90;;;;;;5018025;28;20053;-79
2022/11/11 10:17:14;;;;;;;1.55;0.43;;;10.90;99.90;;;;;;5035450;28;20045;-79
2022/11/11 10:20:01;;;;;;;0.50;0.28;;;10.90;99.90;;;;;;5038620;28;20098;-79
2022/11/11 10:22:33;;;;;;;0.52;0.30;;;10.90;99.90;;;;;;5038499;28;20045;-79
2022/11/11 10:25:19;;;;;;;0.93;0.85;;;10.90;99.90;;;;;;5038357;28;20049;-80
2022/11/11 10:27:48;;;;;;;0.10;0.10;;;11.00;99.90;;;;;;5038570;28;20080;-79
2022/11/11 10:30:29;;;;;;;0.43;0.00;;;11.10;99.90;;;;;;5038173;28;20044;-79
2022/11/11 10:33:02;;;;;;;1.30;0.35;;;11.10;99.90;;;;;;5038308;28;20056;-80
2022/11/11 10:35:32;;;;;;;0.00;0.00;;;11.40;99.90;;;;;;5038251;28;20044;-80
2022/11/11 10:38:01;;;;;;;0.10;0.08;;;11.80;99.90;;;;;;5038534;28;20139;-80
2022/11/11 10:40:50;;;;;;;0.80;0.10;;;12.20;99.90;;;;;;5037836;28;20045;-79
2022/11/11 10:43:26;;;;;;;0.05;0.03;;;12.60;99.90;;;;;;5037808;28;20562;-79
2022/11/11 10:46:10;;;;;;;0.00;0.00;;;12.90;99.90;;;;;;5037944;28;20060;-79
2022/11/11 10:48:54;;;;;;;0.55;0.40;;;13.50;99.90;;;;;;5037662;28;20056;-79
2022/11/11 10:51:22;;;;;;;0.00;0.00;;;14.10;99.90;;;;;;5076680;28;20060;-79
2022/11/11 10:54:02;;;;;;;1.95;0.10;;;14.70;99.90;;;;;;5078839;28;20063;-80
2022/11/11 10:56:42;;;;;;;0.00;0.00;;;15.00;99.90;;;;;;5095809;28;20043;-79
2022/11/11 10:59:17;;;;;;;0.75;0.20;;;15.10;99.90;;;;;;5095959;28;20076;-79
2022/11/11 11:01:59;;;;;;;0.00;0.00;;;15.10;99.90;;;;;;5078842;28;20413;-79
2022/11/11 11:04:25;;;;;;;0.00;0.00;;;15.00;99.90;;;;;;5078362;28;20051;-79
2022/11/11 11:06:53;;;;;;;0.10;0.10;;;14.90;99.90;;;;;;5078985;28;20442;-79
2022/11/11 11:09:29;;;;;;;0.20;0.20;;;14.90;99.90;;;;;;5095484;28;20036;-79
2022/11/11 11:12:13;;;;;;;0.28;0.28;;;14.70;99.90;;;;;;5078736;28;20086;-79
2022/11/11 11:14:43;;;;;;;0.10;0.00;;;14.50;99.90;;;;;;5095416;28;20108;-80
2022/11/11 11:17:29;;;;;;;0.20;0.20;;;14.50;99.90;;;;;;5095143;28;20044;-79
2022/11/11 11:20:15;;;;;;;0.00;0.00;;;14.40;99.90;;;;;;5078588;28;20043;-79
2022/11/11 11:22:48;;;;;;;0.20;0.17;;;14.50;99.90;;;;;;5095413;28;20059;-79
2022/11/11 11:25:14;;;;;;;0.10;0.10;;;14.40;99.90;;;;;;5094996;28;20044;-80
2022/11/11 11:27:40;;;;;;;0.10;0.00;;;14.30;99.90;;;;;;5077896;28;20083;-79
2022/11/11 11:30:17;;;;;;;0.00;0.00;;;14.30;99.90;;;;;;5078077;28;20094;-79
2022/11/11 11:32:58;;;;;;;0.10;0.00;;;14.30;99.90;;;;;;5078655;28;20384;-79
2022/11/11 11:35:29;;;;;;;0.20;0.20;;;14.50;99.90;;;;;;5094989;28;20047;-79
2022/11/11 11:37:54;;;;;;;0.00;0.00;;;14.80;99.90;;;;;;5095179;28;20091;-79
2022/11/11 11:40:20;;;;;;;0.30;0.10;;;14.80;99.90;;;;;;5094601;28;20079;-79
2022/11/11 11:42:45;;;;;;;0.00;0.00;;;14.80;99.90;;;;;;5094362;28;20517;-79
2022/11/11 11:45:22;;;;;;;0.65;0.30;;;14.70;99.90;;;;;;5078039;28;20054;-79
2022/11/11 11:48:03;;;;;;;1.35;0.65;;;14.40;99.90;;;;;;5094758;28;20127;-79
2022/11/11 11:50:50;;;;;;;0.03;0.03;;;14.30;99.90;;;;;;5077848;28;20055;-79
2022/11/11 11:53:33;;;;;;;0.55;0.55;;;14.20;99.90;;;;;;5077907;28;20396;-79
2022/11/11 11:56:19;;;;;;;2.08;0.10;;;14.20;99.90;;;;;;5077674;28;20048;-79
2022/11/11 11:59:03;;;;;;;0.08;0.08;;;14.20;99.90;;;;;;5094153;28;20396;-79
2022/11/11 12:01:53;;;;;;;0.03;0.03;;;14.40;99.90;;;;;;5094199;28;20395;-79
2022/11/11 12:05:01;;;;;;;0.28;0.28;;;14.40;99.90;;;;;;5094485;28;20289;-79
2022/11/11 12:07:45;;;;;;;0.00;0.00;;;14.40;99.90;;;;;;5077980;28;20135;-79
2022/11/11 12:10:25;;;;;;;0.00;0.00;;;14.40;99.90;;;;;;5094361;28;20059;-79
2022/11/11 12:13:14;;;;;;;3.25;0.52;;;14.30;99.90;;;;;;5077158;28;20322;-79
2022/11/11 12:16:14;;;;;;;0.00;0.00;;;14.20;99.90;;;;;;5077174;28;20040;-79
2022/11/11 12:18:58;;;;;;;0.20;0.20;;;14.10;99.90;;;;;;5019185;28;20053;-79
2022/11/11 12:21:40;;;;;;;1.00;0.27;;;14.20;99.90;;;;;;5035804;28;20076;-80
2022/11/11 12:24:12;;;;;;;0.10;0.10;;;14.30;99.90;;;;;;5036104;28;20132;-79
2022/11/11 12:26:56;;;;;;;0.00;0.00;;;14.30;99.90;;;;;;5035230;28;20504;-79
2022/11/11 12:29:36;;;;;;;0.70;0.37;;;14.20;99.90;;;;;;5036139;28;20452;-79
2022/11/11 12:32:31;;;;;;;0.15;0.10;;;14.20;99.90;;;;;;5036514;28;20144;-80
2022/11/11 12:35:34;;;;;;;7.78;0.38;;;14.10;99.90;;;;;;5035843;28;20092;-79
2022/11/11 12:38:25;;;;;;;0.85;0.40;;;14.10;99.90;;;;;;5035898;28;20488;-79
2022/11/11 12:41:16;;;;;;;0.00;0.00;;;14.10;99.90;;;;;;5035200;28;20452;-79
2022/11/11 12:43:41;;;;;;;0.13;0.13;;;14.10;99.90;;;;;;5036015;28;20099;-79
2022/11/11 12:46:28;;;;;;;0.00;0.00;;;14.00;99.90;;;;;;5035735;28;20140;-79
2022/11/11 12:49:29;;;;;;;0.00;0.00;;;14.10;99.90;;;;;;5035633;28;20195;-80
2022/11/11 12:52:22;;;;;;;0.00;0.00;;;14.00;99.90;;;;;;5035443;28;20049;-80
2022/11/11 12:55:22;;;;;;;0.00;0.00;;;14.00;99.90;;;;;;5076030;28;20084;-80
2022/11/11 12:58:06;;;;;;;0.00;0.00;;;13.90;99.90;;;;;;5093170;28;20047;-79
2022/11/11 13:00:36;;;;;;;0.00;0.00;;;13.80;99.90;;;;;;5076253;28;20048;-80
2022/11/11 13:03:22;;;;;;;0.30;0.25;;;13.80;99.90;;;;;;5076306;28;20051;-80
2022/11/11 13:06:07;;;;;;;0.00;0.00;;;13.70;99.90;;;;;;5074761;28;20412;-80
2022/11/11 13:08:44;;;;;;;0.00;0.00;;;13.70;99.90;;;;;;5076468;28;20043;-79
2022/11/11 13:11:28;;;;;;;0.13;0.13;;;13.70;99.90;;;;;;5076362;28;20290;-80
2022/11/11 13:14:34;;;;;;;0.30;0.30;;;13.70;99.90;;;;;;5093036;28;20472;-79
2022/11/11 13:17:00;;;;;;;1.27;0.65;;;13.60;99.90;;;;;;5076149;28;20047;-79
2022/11/11 13:19:43;;;;;;;0.22;0.22;;;13.50;99.90;;;;;;5076284;28;20522;-79
2022/11/11 13:22:21;;;;;;;0.25;0.20;;;13.50;99.90;;;;;;5093742;28;20040;-79
2022/11/11 13:24:48;;;;;;;0.10;0.10;;;13.50;99.90;;;;;;5092961;28;20381;-79
2022/11/11 13:27:17;;;;;;;0.20;0.20;;;13.50;99.90;;;;;;5076342;28;20095;-79
2022/11/11 13:30:35;;;;;;;0.28;0.10;;;13.50;99.90;;;;;;5076179;28;20048;-79
2022/11/11 13:33:05;;;;;;;0.00;0.00;;;13.50;99.90;;;;;;5035605;28;20064;-79
2022/11/11 13:35:39;;;;;;;0.20;0.00;;;13.50;99.90;;;;;;5035146;28;20057;-79
2022/11/11 13:38:06;;;;;;;0.00;0.00;;;13.50;99.90;;;;;;5035073;28;20045;-79
2022/11/11 13:40:44;;;;;;;0.00;0.00;;;13.50;99.90;;;;;;5034195;28;20327;-80
2022/11/11 13:43:24;;;;;;;0.00;0.00;;;13.40;99.90;;;;;;5035411;28;20122;-79
2022/11/11 13:45:52;;;;;;;0.00;0.00;;;13.40;99.90;;;;;;5034869;28;20056;-79
2022/11/11 13:48:39;;;;;;;1.00;0.43;;;13.40;99.90;;;;;;5035092;28;20143;-79
2022/11/11 13:51:32;;;;;;;0.00;0.00;;;13.40;99.90;;;;;;4960717;28;20054;-80
2022/11/11 13:54:01;;;;;;;1.02;0.15;;;13.50;99.90;;;;;;4979968;28;20052;-79
2022/11/11 13:56:43;;;;;;;0.40;0.32;;;13.50;99.90;;;;;;4979903;28;20438;-79
2022/11/11 13:59:32;;;;;;;0.10;0.08;;;13.50;99.90;;;;;;4979995;28;20054;-79
2022/11/11 14:02:19;;;;;;;0.03;0.00;;;13.50;99.90;;;;;;4996556;28;20063;-79
2022/11/11 14:05:07;;;;;;;0.00;0.00;;;13.60;99.90;;;;;;4963311;28;20097;-80
2022/11/11 14:07:48;;;;;;;0.70;0.22;;;13.50;99.90;;;;;;4991563;28;20497;-80
2022/11/11 14:10:16;;;;;;;0.05;0.05;;;13.50;99.90;;;;;;5022092;28;20175;-79
2022/11/11 14:12:51;;;;;;;0.00;0.00;;;13.60;99.90;;;;;;5038515;28;20048;-79
2022/11/11 14:15:44;;;;;;;0.00;0.00;;;13.60;99.90;;;;;;5038824;28;20444;-79
2022/11/11 14:18:27;;;;;;;0.00;0.00;;;13.50;99.90;;;;;;5038568;28;20056;-79
2022/11/11 14:20:54;;;;;;;0.00;0.00;;;13.50;99.90;;;;;;5021870;28;20491;-79
2022/11/11 14:23:40;;;;;;;0.20;0.20;;;13.50;99.90;;;;;;5038369;28;20045;-80
2022/11/11 14:26:06;;;;;;;0.47;0.30;;;13.40;99.90;;;;;;5038418;28;20063;-79
2022/11/11 14:28:36;;;;;;;0.22;0.20;;;13.40;99.90;;;;;;5073699;28;20044;-79
2022/11/11 14:31:17;;;;;;;0.00;0.00;;;13.30;99.90;;;;;;5096449;28;20044;-79